sensor_id;sensor_type;location;lat;lon;timestamp;P1;durP1;ratioP1;P2;durP2;ratioP2
23718;SDS011;43322;52.230;5.702;2022-12-20T00:00:54;3.55;;;3.35;;
23718;SDS011;43322;52.230;5.702;2022-12-20T00:03:22;3.70;;;3.40;;
23718;SDS011;43322;52.230;5.702;2022-12-20T00:05:49;4.38;;;3.92;;
23718;SDS011;43322;52.230;5.702;2022-12-20T00:08:16;3.78;;;3.42;;
23718;SDS011;43322;52.230;5.702;2022-12-20T00:10:43;3.35;;;3.05;;
23718;SDS011;43322;52.230;5.702;2022-12-20T00:13:11;3.70;;;3.40;;
23718;SDS011;43322;52.230;5.702;2022-12-20T00:15:38;4.28;;;3.30;;
23718;SDS011;43322;52.230;5.702;2022-12-20T00:18:04;3.42;;;3.22;;
23718;SDS011;43322;52.230;5.702;2022-12-20T00:20:32;3.60;;;3.30;;
23718;SDS011;43322;52.230;5.702;2022-12-20T00:22:59;5.32;;;3.60;;
23718;SDS011;43322;52.230;5.702;2022-12-20T00:25:26;3.55;;;3.33;;
23718;SDS011;43322;52.230;5.702;2022-12-20T00:27:53;3.85;;;3.20;;
23718;SDS011;43322;52.230;5.702;2022-12-20T00:30:20;3.88;;;3.45;;
23718;SDS011;43322;52.230;5.702;2022-12-20T00:32:46;3.20;;;3.00;;
23718;SDS011;43322;52.230;5.702;2022-12-20T00:35:14;3.58;;;3.22;;
23718;SDS011;43322;52.230;5.702;2022-12-20T00:37:42;3.75;;;3.42;;
23718;SDS011;43322;52.230;5.702;2022-12-20T00:40:09;3.30;;;3.00;;
23718;SDS011;43322;52.230;5.702;2022-12-20T00:42:36;3.47;;;3.17;;
23718;SDS011;43322;52.230;5.702;2022-12-20T00:45:03;3.42;;;3.22;;
23718;SDS011;43322;52.230;5.702;2022-12-20T00:47:30;5.15;;;3.17;;
23718;SDS011;43322;52.230;5.702;2022-12-20T00:49:57;3.50;;;3.20;;
23718;SDS011;43322;52.230;5.702;2022-12-20T00:52:24;3.90;;;3.60;;
23718;SDS011;43322;52.230;5.702;2022-12-20T00:54:52;3.60;;;3.30;;
23718;SDS011;43322;52.230;5.702;2022-12-20T00:57:19;3.45;;;3.15;;
23718;SDS011;43322;52.230;5.702;2022-12-20T00:59:46;3.55;;;3.25;;
23718;SDS011;43322;52.230;5.702;2022-12-20T01:02:12;3.45;;;3.15;;
23718;SDS011;43322;52.230;5.702;2022-12-20T01:04:40;5.40;;;3.20;;
23718;SDS011;43322;52.230;5.702;2022-12-20T01:07:07;6.03;;;2.80;;
23718;SDS011;43322;52.230;5.702;2022-12-20T01:09:35;3.33;;;3.15;;
23718;SDS011;43322;52.230;5.702;2022-12-20T01:12:03;3.28;;;3.03;;
23718;SDS011;43322;52.230;5.702;2022-12-20T01:14:30;3.60;;;3.30;;
23718;SDS011;43322;52.230;5.702;2022-12-20T01:16:57;3.33;;;3.03;;
23718;SDS011;43322;52.230;5.702;2022-12-20T01:19:23;3.28;;;2.97;;
23718;SDS011;43322;52.230;5.702;2022-12-20T01:21:50;3.22;;;2.97;;
23718;SDS011;43322;52.230;5.702;2022-12-20T01:24:17;3.40;;;3.20;;
23718;SDS011;43322;52.230;5.702;2022-12-20T01:26:45;3.58;;;3.20;;
23718;SDS011;43322;52.230;5.702;2022-12-20T01:29:13;3.28;;;3.00;;
23718;SDS011;43322;52.230;5.702;2022-12-20T01:31:42;6.28;;;3.55;;
23718;SDS011;43322;52.230;5.702;2022-12-20T01:34:08;3.42;;;3.20;;
23718;SDS011;43322;52.230;5.702;2022-12-20T01:36:35;3.63;;;3.33;;
23718;SDS011;43322;52.230;5.702;2022-12-20T01:39:03;3.17;;;2.88;;
23718;SDS011;43322;52.230;5.702;2022-12-20T01:41:32;4.38;;;3.42;;
23718;SDS011;43322;52.230;5.702;2022-12-20T01:44:00;3.97;;;3.42;;
23718;SDS011;43322;52.230;5.702;2022-12-20T01:46:30;4.85;;;3.42;;
23718;SDS011;43322;52.230;5.702;2022-12-20T01:48:58;5.97;;;3.90;;
23718;SDS011;43322;52.230;5.702;2022-12-20T01:51:31;7.30;;;4.03;;
23718;SDS011;43322;52.230;5.702;2022-12-20T01:54:02;9.13;;;3.55;;
23718;SDS011;43322;52.230;5.702;2022-12-20T01:56:32;4.40;;;3.92;;
23718;SDS011;43322;52.230;5.702;2022-12-20T01:59:00;6.10;;;3.70;;
23718;SDS011;43322;52.230;5.702;2022-12-20T02:01:27;5.80;;;4.18;;
23718;SDS011;43322;52.230;5.702;2022-12-20T02:03:55;4.97;;;4.32;;
23718;SDS011;43322;52.230;5.702;2022-12-20T02:06:23;4.78;;;4.38;;
23718;SDS011;43322;52.230;5.702;2022-12-20T02:08:51;7.00;;;4.72;;
23718;SDS011;43322;52.230;5.702;2022-12-20T02:11:32;5.10;;;4.60;;
23718;SDS011;43322;52.230;5.702;2022-12-20T02:14:27;6.65;;;4.38;;
23718;SDS011;43322;52.230;5.702;2022-12-20T02:17:09;5.80;;;4.65;;
23718;SDS011;43322;52.230;5.702;2022-12-20T02:19:53;4.88;;;4.47;;
23718;SDS011;43322;52.230;5.702;2022-12-20T02:22:44;5.00;;;4.60;;
23718;SDS011;43322;52.230;5.702;2022-12-20T02:25:29;5.85;;;5.05;;
23718;SDS011;43322;52.230;5.702;2022-12-20T02:28:15;4.75;;;4.45;;
23718;SDS011;43322;52.230;5.702;2022-12-20T02:31:01;5.13;;;4.68;;
23718;SDS011;43322;52.230;5.702;2022-12-20T02:33:33;8.48;;;4.93;;
23718;SDS011;43322;52.230;5.702;2022-12-20T02:36:01;6.28;;;4.82;;
23718;SDS011;43322;52.230;5.702;2022-12-20T02:38:29;6.50;;;5.40;;
23718;SDS011;43322;52.230;5.702;2022-12-20T02:40:59;6.35;;;4.80;;
23718;SDS011;43322;52.230;5.702;2022-12-20T02:43:28;7.80;;;5.53;;
23718;SDS011;43322;52.230;5.702;2022-12-20T02:46:16;9.32;;;5.68;;
23718;SDS011;43322;52.230;5.702;2022-12-20T02:48:45;8.32;;;5.22;;
23718;SDS011;43322;52.230;5.702;2022-12-20T02:51:14;7.75;;;5.20;;
23718;SDS011;43322;52.230;5.702;2022-12-20T02:53:43;5.53;;;4.88;;
23718;SDS011;43322;52.230;5.702;2022-12-20T02:56:11;5.30;;;4.90;;
23718;SDS011;43322;52.230;5.702;2022-12-20T02:58:42;6.25;;;5.65;;
23718;SDS011;43322;52.230;5.702;2022-12-20T03:01:18;7.43;;;5.82;;
23718;SDS011;43322;52.230;5.702;2022-12-20T03:03:48;8.95;;;5.53;;
23718;SDS011;43322;52.230;5.702;2022-12-20T03:06:17;7.13;;;5.93;;
23718;SDS011;43322;52.230;5.702;2022-12-20T03:08:44;7.22;;;5.68;;
23718;SDS011;43322;52.230;5.702;2022-12-20T03:11:11;6.60;;;5.63;;
23718;SDS011;43322;52.230;5.702;2022-12-20T03:13:38;10.48;;;6.10;;
23718;SDS011;43322;52.230;5.702;2022-12-20T03:16:05;7.15;;;5.82;;
23718;SDS011;43322;52.230;5.702;2022-12-20T03:18:34;6.22;;;5.72;;
23718;SDS011;43322;52.230;5.702;2022-12-20T03:21:01;9.73;;;6.10;;
23718;SDS011;43322;52.230;5.702;2022-12-20T03:23:28;6.97;;;5.90;;
23718;SDS011;43322;52.230;5.702;2022-12-20T03:25:55;6.45;;;5.68;;
23718;SDS011;43322;52.230;5.702;2022-12-20T03:28:21;7.75;;;5.82;;
23718;SDS011;43322;52.230;5.702;2022-12-20T03:30:49;7.43;;;5.65;;
23718;SDS011;43322;52.230;5.702;2022-12-20T03:33:16;6.75;;;6.05;;
23718;SDS011;43322;52.230;5.702;2022-12-20T03:35:44;6.15;;;5.57;;
23718;SDS011;43322;52.230;5.702;2022-12-20T03:38:12;7.47;;;5.95;;
23718;SDS011;43322;52.230;5.702;2022-12-20T03:40:39;7.82;;;5.63;;
23718;SDS011;43322;52.230;5.702;2022-12-20T03:43:06;5.30;;;4.90;;
23718;SDS011;43322;52.230;5.702;2022-12-20T03:45:33;5.47;;;5.03;;
23718;SDS011;43322;52.230;5.702;2022-12-20T03:47:59;5.88;;;5.10;;
23718;SDS011;43322;52.230;5.702;2022-12-20T03:50:26;5.95;;;5.40;;
23718;SDS011;43322;52.230;5.702;2022-12-20T03:52:54;6.68;;;5.13;;
23718;SDS011;43322;52.230;5.702;2022-12-20T03:55:21;7.10;;;5.30;;
23718;SDS011;43322;52.230;5.702;2022-12-20T03:57:48;6.20;;;5.55;;
23718;SDS011;43322;52.230;5.702;2022-12-20T04:00:15;5.75;;;5.10;;
23718;SDS011;43322;52.230;5.702;2022-12-20T04:02:42;7.03;;;5.30;;
23718;SDS011;43322;52.230;5.702;2022-12-20T04:05:09;5.20;;;4.80;;
23718;SDS011;43322;52.230;5.702;2022-12-20T04:07:36;5.78;;;4.13;;
23718;SDS011;43322;52.230;5.702;2022-12-20T04:10:05;5.38;;;4.68;;
23718;SDS011;43322;52.230;5.702;2022-12-20T04:12:32;5.57;;;4.40;;
23718;SDS011;43322;52.230;5.702;2022-12-20T04:15:00;5.43;;;4.20;;
23718;SDS011;43322;52.230;5.702;2022-12-20T04:17:27;4.85;;;4.38;;
23718;SDS011;43322;52.230;5.702;2022-12-20T04:19:54;6.22;;;4.47;;
23718;SDS011;43322;52.230;5.702;2022-12-20T04:22:21;4.13;;;3.72;;
23718;SDS011;43322;52.230;5.702;2022-12-20T04:24:48;3.90;;;3.70;;
23718;SDS011;43322;52.230;5.702;2022-12-20T04:27:16;4.15;;;3.75;;
23718;SDS011;43322;52.230;5.702;2022-12-20T04:29:42;4.45;;;3.80;;
23718;SDS011;43322;52.230;5.702;2022-12-20T04:32:09;4.97;;;4.15;;
23718;SDS011;43322;52.230;5.702;2022-12-20T04:34:36;5.80;;;3.67;;
23718;SDS011;43322;52.230;5.702;2022-12-20T04:37:03;3.75;;;3.25;;
23718;SDS011;43322;52.230;5.702;2022-12-20T04:39:29;4.15;;;3.70;;
23718;SDS011;43322;52.230;5.702;2022-12-20T04:41:56;4.07;;;3.60;;
23718;SDS011;43322;52.230;5.702;2022-12-20T04:44:24;3.67;;;3.40;;
23718;SDS011;43322;52.230;5.702;2022-12-20T04:46:51;4.70;;;3.53;;
23718;SDS011;43322;52.230;5.702;2022-12-20T04:49:18;3.53;;;3.33;;
23718;SDS011;43322;52.230;5.702;2022-12-20T04:51:45;3.88;;;3.40;;
23718;SDS011;43322;52.230;5.702;2022-12-20T04:54:11;3.95;;;3.42;;
23718;SDS011;43322;52.230;5.702;2022-12-20T04:56:37;5.55;;;3.35;;
23718;SDS011;43322;52.230;5.702;2022-12-20T04:59:04;3.70;;;3.40;;
23718;SDS011;43322;52.230;5.702;2022-12-20T05:01:32;4.20;;;3.15;;
23718;SDS011;43322;52.230;5.702;2022-12-20T05:03:59;3.47;;;3.20;;
23718;SDS011;43322;52.230;5.702;2022-12-20T05:06:26;3.30;;;3.00;;
23718;SDS011;43322;52.230;5.702;2022-12-20T05:08:52;3.53;;;3.22;;
23718;SDS011;43322;52.230;5.702;2022-12-20T05:11:19;3.35;;;3.13;;
23718;SDS011;43322;52.230;5.702;2022-12-20T05:13:46;4.68;;;3.08;;
23718;SDS011;43322;52.230;5.702;2022-12-20T05:16:13;5.53;;;2.97;;
23718;SDS011;43322;52.230;5.702;2022-12-20T05:18:41;4.20;;;3.40;;
23718;SDS011;43322;52.230;5.702;2022-12-20T05:21:07;3.67;;;3.38;;
23718;SDS011;43322;52.230;5.702;2022-12-20T05:23:51;5.82;;;4.05;;
23718;SDS011;43322;52.230;5.702;2022-12-20T05:26:36;4.03;;;3.60;;
23718;SDS011;43322;52.230;5.702;2022-12-20T05:29:03;5.55;;;4.28;;
23718;SDS011;43322;52.230;5.702;2022-12-20T05:31:31;4.88;;;4.38;;
23718;SDS011;43322;52.230;5.702;2022-12-20T05:33:59;5.63;;;4.40;;
23718;SDS011;43322;52.230;5.702;2022-12-20T05:36:26;5.32;;;4.38;;
23718;SDS011;43322;52.230;5.702;2022-12-20T05:38:52;9.90;;;4.70;;
23718;SDS011;43322;52.230;5.702;2022-12-20T05:41:19;10.35;;;4.45;;
23718;SDS011;43322;52.230;5.702;2022-12-20T05:43:46;4.78;;;4.38;;
23718;SDS011;43322;52.230;5.702;2022-12-20T05:46:13;5.88;;;4.30;;
23718;SDS011;43322;52.230;5.702;2022-12-20T05:48:39;4.45;;;4.07;;
23718;SDS011;43322;52.230;5.702;2022-12-20T05:51:07;5.68;;;4.18;;
23718;SDS011;43322;52.230;5.702;2022-12-20T05:53:34;4.88;;;4.47;;
23718;SDS011;43322;52.230;5.702;2022-12-20T05:56:01;4.90;;;4.40;;
23718;SDS011;43322;52.230;5.702;2022-12-20T05:58:28;5.00;;;4.47;;
23718;SDS011;43322;52.230;5.702;2022-12-20T06:00:55;5.68;;;4.95;;
23718;SDS011;43322;52.230;5.702;2022-12-20T06:03:22;5.05;;;4.35;;
23718;SDS011;43322;52.230;5.702;2022-12-20T06:05:49;5.22;;;4.72;;
23718;SDS011;43322;52.230;5.702;2022-12-20T06:08:17;4.60;;;4.28;;
23718;SDS011;43322;52.230;5.702;2022-12-20T06:10:45;5.22;;;4.45;;
23718;SDS011;43322;52.230;5.702;2022-12-20T06:13:13;4.65;;;4.25;;
23718;SDS011;43322;52.230;5.702;2022-12-20T06:15:40;5.65;;;4.70;;
23718;SDS011;43322;52.230;5.702;2022-12-20T06:18:07;5.18;;;4.40;;
23718;SDS011;43322;52.230;5.702;2022-12-20T06:20:35;4.93;;;4.30;;
23718;SDS011;43322;52.230;5.702;2022-12-20T06:23:02;4.97;;;4.63;;
23718;SDS011;43322;52.230;5.702;2022-12-20T06:25:31;5.95;;;4.72;;
23718;SDS011;43322;52.230;5.702;2022-12-20T06:27:57;4.53;;;4.30;;
23718;SDS011;43322;52.230;5.702;2022-12-20T06:30:24;4.25;;;3.95;;
23718;SDS011;43322;52.230;5.702;2022-12-20T06:32:51;5.43;;;4.47;;
23718;SDS011;43322;52.230;5.702;2022-12-20T06:35:17;4.80;;;4.40;;
23718;SDS011;43322;52.230;5.702;2022-12-20T06:37:44;5.20;;;4.70;;
23718;SDS011;43322;52.230;5.702;2022-12-20T06:40:11;4.70;;;4.25;;
23718;SDS011;43322;52.230;5.702;2022-12-20T06:42:40;5.18;;;4.68;;
23718;SDS011;43322;52.230;5.702;2022-12-20T06:45:07;4.75;;;4.07;;
23718;SDS011;43322;52.230;5.702;2022-12-20T06:47:34;4.75;;;4.22;;
23718;SDS011;43322;52.230;5.702;2022-12-20T06:50:03;8.00;;;4.35;;
23718;SDS011;43322;52.230;5.702;2022-12-20T06:52:30;5.40;;;4.22;;
23718;SDS011;43322;52.230;5.702;2022-12-20T06:54:57;6.25;;;4.35;;
23718;SDS011;43322;52.230;5.702;2022-12-20T06:57:24;5.10;;;3.92;;
23718;SDS011;43322;52.230;5.702;2022-12-20T06:59:52;6.13;;;3.83;;
23718;SDS011;43322;52.230;5.702;2022-12-20T07:02:18;5.18;;;3.80;;
23718;SDS011;43322;52.230;5.702;2022-12-20T07:04:45;4.28;;;3.97;;
23718;SDS011;43322;52.230;5.702;2022-12-20T07:07:12;3.63;;;3.33;;
23718;SDS011;43322;52.230;5.702;2022-12-20T07:09:39;4.03;;;3.72;;
23718;SDS011;43322;52.230;5.702;2022-12-20T07:12:06;4.32;;;3.80;;
23718;SDS011;43322;52.230;5.702;2022-12-20T07:14:33;4.00;;;3.60;;
23718;SDS011;43322;52.230;5.702;2022-12-20T07:17:02;3.83;;;3.40;;
23718;SDS011;43322;52.230;5.702;2022-12-20T07:19:29;4.18;;;3.47;;
23718;SDS011;43322;52.230;5.702;2022-12-20T07:21:56;3.55;;;3.30;;
23718;SDS011;43322;52.230;5.702;2022-12-20T07:24:22;3.25;;;3.05;;
23718;SDS011;43322;52.230;5.702;2022-12-20T07:26:49;3.33;;;3.03;;
23718;SDS011;43322;52.230;5.702;2022-12-20T07:29:16;2.90;;;2.70;;
23718;SDS011;43322;52.230;5.702;2022-12-20T07:31:43;3.20;;;3.00;;
23718;SDS011;43322;52.230;5.702;2022-12-20T07:34:11;3.17;;;2.97;;
23718;SDS011;43322;52.230;5.702;2022-12-20T07:36:38;4.80;;;3.00;;
23718;SDS011;43322;52.230;5.702;2022-12-20T07:39:04;5.55;;;3.05;;
23718;SDS011;43322;52.230;5.702;2022-12-20T07:41:31;3.38;;;2.92;;
23718;SDS011;43322;52.230;5.702;2022-12-20T07:43:58;2.83;;;2.63;;
23718;SDS011;43322;52.230;5.702;2022-12-20T07:46:25;2.72;;;2.63;;
23718;SDS011;43322;52.230;5.702;2022-12-20T07:48:52;5.45;;;2.97;;
23718;SDS011;43322;52.230;5.702;2022-12-20T07:51:22;5.03;;;2.92;;
23718;SDS011;43322;52.230;5.702;2022-12-20T07:53:51;3.00;;;2.70;;
23718;SDS011;43322;52.230;5.702;2022-12-20T07:56:22;4.50;;;2.67;;
23718;SDS011;43322;52.230;5.702;2022-12-20T07:58:50;2.78;;;2.58;;
23718;SDS011;43322;52.230;5.702;2022-12-20T08:01:22;5.35;;;3.75;;
23718;SDS011;43322;52.230;5.702;2022-12-20T08:03:51;2.88;;;2.67;;
23718;SDS011;43322;52.230;5.702;2022-12-20T08:06:22;5.75;;;2.70;;
23718;SDS011;43322;52.230;5.702;2022-12-20T08:08:50;2.90;;;2.70;;
23718;SDS011;43322;52.230;5.702;2022-12-20T08:11:20;4.40;;;2.90;;
23718;SDS011;43322;52.230;5.702;2022-12-20T08:13:49;5.43;;;3.05;;
23718;SDS011;43322;52.230;5.702;2022-12-20T08:16:17;4.28;;;3.28;;
23718;SDS011;43322;52.230;5.702;2022-12-20T08:18:43;3.00;;;2.75;;
23718;SDS011;43322;52.230;5.702;2022-12-20T08:21:10;3.03;;;2.70;;
23718;SDS011;43322;52.230;5.702;2022-12-20T08:23:40;2.92;;;2.72;;
23718;SDS011;43322;52.230;5.702;2022-12-20T08:26:06;3.40;;;3.20;;
23718;SDS011;43322;52.230;5.702;2022-12-20T08:28:33;6.40;;;3.80;;
23718;SDS011;43322;52.230;5.702;2022-12-20T08:31:00;5.05;;;3.25;;
23718;SDS011;43322;52.230;5.702;2022-12-20T08:33:27;3.50;;;3.20;;
23718;SDS011;43322;52.230;5.702;2022-12-20T08:35:57;4.20;;;3.00;;
23718;SDS011;43322;52.230;5.702;2022-12-20T08:38:26;3.45;;;3.15;;
23718;SDS011;43322;52.230;5.702;2022-12-20T08:41:00;5.75;;;3.35;;
23718;SDS011;43322;52.230;5.702;2022-12-20T08:43:27;3.53;;;3.22;;
23718;SDS011;43322;52.230;5.702;2022-12-20T08:45:54;3.90;;;3.47;;
23718;SDS011;43322;52.230;5.702;2022-12-20T08:48:21;3.80;;;3.05;;
23718;SDS011;43322;52.230;5.702;2022-12-20T08:50:52;3.20;;;3.00;;
23718;SDS011;43322;52.230;5.702;2022-12-20T08:53:20;3.40;;;2.70;;
23718;SDS011;43322;52.230;5.702;2022-12-20T08:55:46;3.78;;;2.78;;
23718;SDS011;43322;52.230;5.702;2022-12-20T08:58:14;2.90;;;2.70;;
23718;SDS011;43322;52.230;5.702;2022-12-20T09:00:41;3.53;;;3.22;;
23718;SDS011;43322;52.230;5.702;2022-12-20T09:03:08;3.13;;;2.92;;
23718;SDS011;43322;52.230;5.702;2022-12-20T09:05:35;5.20;;;3.08;;
23718;SDS011;43322;52.230;5.702;2022-12-20T09:08:02;2.70;;;2.50;;
23718;SDS011;43322;52.230;5.702;2022-12-20T09:10:29;3.22;;;2.92;;
23718;SDS011;43322;52.230;5.702;2022-12-20T09:12:55;3.13;;;2.92;;
23718;SDS011;43322;52.230;5.702;2022-12-20T09:15:23;5.22;;;2.85;;
23718;SDS011;43322;52.230;5.702;2022-12-20T09:17:51;3.40;;;3.10;;
23718;SDS011;43322;52.230;5.702;2022-12-20T09:20:19;5.32;;;3.50;;
23718;SDS011;43322;52.230;5.702;2022-12-20T09:22:46;3.28;;;3.10;;
23718;SDS011;43322;52.230;5.702;2022-12-20T09:25:12;4.88;;;3.20;;
23718;SDS011;43322;52.230;5.702;2022-12-20T09:27:39;3.38;;;3.00;;
23718;SDS011;43322;52.230;5.702;2022-12-20T09:30:06;5.13;;;3.25;;
23718;SDS011;43322;52.230;5.702;2022-12-20T09:32:35;4.75;;;3.83;;
23718;SDS011;43322;52.230;5.702;2022-12-20T09:35:02;4.55;;;3.70;;
23718;SDS011;43322;52.230;5.702;2022-12-20T09:37:30;3.80;;;3.50;;
23718;SDS011;43322;52.230;5.702;2022-12-20T09:39:57;5.30;;;3.47;;
23718;SDS011;43322;52.230;5.702;2022-12-20T09:42:25;4.03;;;3.72;;
23718;SDS011;43322;52.230;5.702;2022-12-20T09:44:53;4.88;;;3.60;;
23718;SDS011;43322;52.230;5.702;2022-12-20T09:47:26;5.45;;;3.60;;
23718;SDS011;43322;52.230;5.702;2022-12-20T09:49:54;3.92;;;3.50;;
23718;SDS011;43322;52.230;5.702;2022-12-20T09:52:29;4.78;;;3.78;;
23718;SDS011;43322;52.230;5.702;2022-12-20T09:55:12;4.07;;;3.78;;
23718;SDS011;43322;52.230;5.702;2022-12-20T09:57:53;5.32;;;3.83;;
23718;SDS011;43322;52.230;5.702;2022-12-20T10:00:34;4.20;;;3.80;;
23718;SDS011;43322;52.230;5.702;2022-12-20T10:03:01;4.07;;;3.67;;
23718;SDS011;43322;52.230;5.702;2022-12-20T10:05:31;6.80;;;4.13;;
23718;SDS011;43322;52.230;5.702;2022-12-20T10:08:02;6.78;;;3.63;;
23718;SDS011;43322;52.230;5.702;2022-12-20T10:10:38;4.68;;;4.28;;
23718;SDS011;43322;52.230;5.702;2022-12-20T10:13:15;4.30;;;3.88;;
23718;SDS011;43322;52.230;5.702;2022-12-20T10:16:01;5.07;;;4.18;;
23718;SDS011;43322;52.230;5.702;2022-12-20T10:18:44;4.63;;;4.10;;
23718;SDS011;43322;52.230;5.702;2022-12-20T10:21:24;6.53;;;3.90;;
23718;SDS011;43322;52.230;5.702;2022-12-20T10:23:57;4.68;;;4.10;;
23718;SDS011;43322;52.230;5.702;2022-12-20T10:26:27;5.40;;;4.30;;
23718;SDS011;43322;52.230;5.702;2022-12-20T10:28:55;6.13;;;4.57;;
23718;SDS011;43322;52.230;5.702;2022-12-20T10:31:21;5.80;;;4.70;;
23718;SDS011;43322;52.230;5.702;2022-12-20T10:33:49;4.65;;;4.25;;
23718;SDS011;43322;52.230;5.702;2022-12-20T10:36:17;6.63;;;5.30;;
23718;SDS011;43322;52.230;5.702;2022-12-20T10:38:50;5.38;;;4.57;;
23718;SDS011;43322;52.230;5.702;2022-12-20T10:41:19;4.90;;;4.50;;
23718;SDS011;43322;52.230;5.702;2022-12-20T10:43:48;5.25;;;4.70;;
23718;SDS011;43322;52.230;5.702;2022-12-20T10:46:20;7.40;;;4.70;;
23718;SDS011;43322;52.230;5.702;2022-12-20T10:48:47;8.57;;;5.40;;
23718;SDS011;43322;52.230;5.702;2022-12-20T10:51:15;4.70;;;4.40;;
23718;SDS011;43322;52.230;5.702;2022-12-20T10:53:52;9.15;;;4.60;;
23718;SDS011;43322;52.230;5.702;2022-12-20T10:56:22;7.07;;;5.35;;
23718;SDS011;43322;52.230;5.702;2022-12-20T10:58:52;6.45;;;4.70;;
23718;SDS011;43322;52.230;5.702;2022-12-20T11:01:21;5.55;;;5.07;;
23718;SDS011;43322;52.230;5.702;2022-12-20T11:03:53;8.48;;;5.05;;
23718;SDS011;43322;52.230;5.702;2022-12-20T11:06:23;6.55;;;5.13;;
23718;SDS011;43322;52.230;5.702;2022-12-20T11:08:53;9.38;;;5.18;;
23718;SDS011;43322;52.230;5.702;2022-12-20T11:11:55;5.80;;;5.05;;
23718;SDS011;43322;52.230;5.702;2022-12-20T11:14:35;6.53;;;5.38;;
23718;SDS011;43322;52.230;5.702;2022-12-20T11:17:03;5.85;;;5.18;;
23718;SDS011;43322;52.230;5.702;2022-12-20T11:19:49;5.35;;;4.82;;
23718;SDS011;43322;52.230;5.702;2022-12-20T11:22:29;7.03;;;5.13;;
23718;SDS011;43322;52.230;5.702;2022-12-20T11:25:10;5.70;;;5.20;;
23718;SDS011;43322;52.230;5.702;2022-12-20T11:27:54;6.90;;;5.35;;
23718;SDS011;43322;52.230;5.702;2022-12-20T11:30:34;7.82;;;5.70;;
23718;SDS011;43322;52.230;5.702;2022-12-20T11:33:15;7.50;;;5.43;;
23718;SDS011;43322;52.230;5.702;2022-12-20T11:35:56;5.85;;;5.38;;
23718;SDS011;43322;52.230;5.702;2022-12-20T11:38:32;6.45;;;5.45;;
23718;SDS011;43322;52.230;5.702;2022-12-20T11:41:12;6.15;;;5.60;;
23718;SDS011;43322;52.230;5.702;2022-12-20T11:44:03;6.10;;;5.50;;
23718;SDS011;43322;52.230;5.702;2022-12-20T11:46:40;8.70;;;5.60;;
23718;SDS011;43322;52.230;5.702;2022-12-20T11:49:21;6.00;;;5.45;;
23718;SDS011;43322;52.230;5.702;2022-12-20T11:52:12;6.35;;;5.85;;
23718;SDS011;43322;52.230;5.702;2022-12-20T11:54:46;6.70;;;6.05;;
23718;SDS011;43322;52.230;5.702;2022-12-20T11:57:22;6.32;;;5.72;;
23718;SDS011;43322;52.230;5.702;2022-12-20T11:59:53;6.80;;;5.93;;
23718;SDS011;43322;52.230;5.702;2022-12-20T12:02:25;8.50;;;6.18;;
23718;SDS011;43322;52.230;5.702;2022-12-20T12:05:00;6.40;;;5.90;;
23718;SDS011;43322;52.230;5.702;2022-12-20T12:07:31;7.40;;;6.55;;
23718;SDS011;43322;52.230;5.702;2022-12-20T12:10:00;8.57;;;5.80;;
23718;SDS011;43322;52.230;5.702;2022-12-20T12:12:32;9.75;;;6.38;;
23718;SDS011;43322;52.230;5.702;2022-12-20T12:15:05;6.95;;;6.32;;
23718;SDS011;43322;52.230;5.702;2022-12-20T12:17:47;6.45;;;6.00;;
23718;SDS011;43322;52.230;5.702;2022-12-20T12:20:20;6.72;;;6.13;;
23718;SDS011;43322;52.230;5.702;2022-12-20T12:22:52;7.40;;;6.75;;
23718;SDS011;43322;52.230;5.702;2022-12-20T12:25:24;10.10;;;7.00;;
23718;SDS011;43322;52.230;5.702;2022-12-20T12:27:52;6.85;;;6.20;;
23718;SDS011;43322;52.230;5.702;2022-12-20T12:30:19;8.05;;;6.85;;
23718;SDS011;43322;52.230;5.702;2022-12-20T12:33:01;6.72;;;6.22;;
23718;SDS011;43322;52.230;5.702;2022-12-20T12:35:44;7.30;;;6.60;;
23718;SDS011;43322;52.230;5.702;2022-12-20T12:38:44;8.02;;;7.05;;
23718;SDS011;43322;52.230;5.702;2022-12-20T12:41:45;8.52;;;6.70;;
23718;SDS011;43322;52.230;5.702;2022-12-20T12:44:34;7.57;;;6.93;;
23718;SDS011;43322;52.230;5.702;2022-12-20T12:47:05;6.82;;;6.22;;
23718;SDS011;43322;52.230;5.702;2022-12-20T12:49:38;8.02;;;6.60;;
23718;SDS011;43322;52.230;5.702;2022-12-20T12:52:05;7.10;;;6.50;;
23718;SDS011;43322;52.230;5.702;2022-12-20T12:54:34;11.07;;;6.57;;
23718;SDS011;43322;52.230;5.702;2022-12-20T12:57:06;7.30;;;6.63;;
23718;SDS011;43322;52.230;5.702;2022-12-20T12:59:42;8.20;;;6.68;;
23718;SDS011;43322;52.230;5.702;2022-12-20T13:02:26;7.72;;;6.93;;
23718;SDS011;43322;52.230;5.702;2022-12-20T13:05:24;7.38;;;6.78;;
23718;SDS011;43322;52.230;5.702;2022-12-20T13:08:00;7.55;;;6.88;;
23718;SDS011;43322;52.230;5.702;2022-12-20T13:13:26;7.22;;;6.55;;
23718;SDS011;43322;52.230;5.702;2022-12-20T13:16:25;7.47;;;6.78;;
23718;SDS011;43322;52.230;5.702;2022-12-20T13:19:12;7.93;;;7.22;;
23718;SDS011;43322;52.230;5.702;2022-12-20T13:21:41;8.07;;;7.28;;
23718;SDS011;43322;52.230;5.702;2022-12-20T13:27:22;7.75;;;7.22;;
23718;SDS011;43322;52.230;5.702;2022-12-20T13:30:01;8.13;;;7.28;;
23718;SDS011;43322;52.230;5.702;2022-12-20T13:35:55;9.85;;;7.70;;
23718;SDS011;43322;52.230;5.702;2022-12-20T13:41:27;8.23;;;7.45;;
23718;SDS011;43322;52.230;5.702;2022-12-20T13:44:02;10.38;;;7.75;;
23718;SDS011;43322;52.230;5.702;2022-12-20T13:46:45;8.70;;;7.93;;
23718;SDS011;43322;52.230;5.702;2022-12-20T13:49:17;8.50;;;7.80;;
23718;SDS011;43322;52.230;5.702;2022-12-20T13:51:51;8.32;;;7.63;;
23718;SDS011;43322;52.230;5.702;2022-12-20T13:54:38;8.40;;;7.43;;
23718;SDS011;43322;52.230;5.702;2022-12-20T13:57:07;8.90;;;8.15;;
23718;SDS011;43322;52.230;5.702;2022-12-20T13:59:42;8.85;;;8.10;;
23718;SDS011;43322;52.230;5.702;2022-12-20T14:02:16;9.15;;;8.32;;
23718;SDS011;43322;52.230;5.702;2022-12-20T14:04:52;8.90;;;8.20;;
23718;SDS011;43322;52.230;5.702;2022-12-20T14:07:24;8.90;;;8.30;;
23718;SDS011;43322;52.230;5.702;2022-12-20T14:09:54;9.20;;;8.40;;
23718;SDS011;43322;52.230;5.702;2022-12-20T14:12:22;9.50;;;8.60;;
23718;SDS011;43322;52.230;5.702;2022-12-20T14:14:50;9.07;;;8.35;;
23718;SDS011;43322;52.230;5.702;2022-12-20T14:17:20;9.70;;;8.80;;
23718;SDS011;43322;52.230;5.702;2022-12-20T14:20:00;8.95;;;8.25;;
23718;SDS011;43322;52.230;5.702;2022-12-20T14:22:30;9.30;;;8.50;;
23718;SDS011;43322;52.230;5.702;2022-12-20T14:24:59;10.10;;;9.20;;
23718;SDS011;43322;52.230;5.702;2022-12-20T14:27:27;9.10;;;8.50;;
23718;SDS011;43322;52.230;5.702;2022-12-20T14:30:00;9.75;;;8.95;;
23718;SDS011;43322;52.230;5.702;2022-12-20T14:32:28;10.35;;;9.32;;
23718;SDS011;43322;52.230;5.702;2022-12-20T14:34:56;9.98;;;9.15;;
23718;SDS011;43322;52.230;5.702;2022-12-20T14:37:27;10.68;;;9.70;;
23718;SDS011;43322;52.230;5.702;2022-12-20T14:40:02;10.20;;;9.35;;
23718;SDS011;43322;52.230;5.702;2022-12-20T14:42:44;11.20;;;10.10;;
23718;SDS011;43322;52.230;5.702;2022-12-20T14:45:16;11.38;;;10.40;;
23718;SDS011;43322;52.230;5.702;2022-12-20T14:50:33;11.63;;;10.50;;
23718;SDS011;43322;52.230;5.702;2022-12-20T14:53:03;11.52;;;10.48;;
23718;SDS011;43322;52.230;5.702;2022-12-20T14:55:43;14.25;;;12.85;;
23718;SDS011;43322;52.230;5.702;2022-12-20T14:58:21;11.07;;;10.07;;
23718;SDS011;43322;52.230;5.702;2022-12-20T15:00:58;11.48;;;10.43;;
23718;SDS011;43322;52.230;5.702;2022-12-20T15:03:27;11.70;;;10.50;;
23718;SDS011;43322;52.230;5.702;2022-12-20T15:05:54;11.55;;;10.65;;
23718;SDS011;43322;52.230;5.702;2022-12-20T15:08:24;12.27;;;11.18;;
23718;SDS011;43322;52.230;5.702;2022-12-20T15:10:54;11.57;;;10.65;;
23718;SDS011;43322;52.230;5.702;2022-12-20T15:13:24;12.57;;;11.48;;
23718;SDS011;43322;52.230;5.702;2022-12-20T15:15:53;12.70;;;11.75;;
23718;SDS011;43322;52.230;5.702;2022-12-20T15:18:20;13.65;;;12.40;;
23718;SDS011;43322;52.230;5.702;2022-12-20T15:20:48;13.25;;;12.07;;